Terminal Aerodrome Forecast
Issued by NWS

Home | Current Version | Previous Version | Text Only | Print | Product List | Glossary On
Versions: 1 2 3 4 5 6 7 8 9 10 11 12 13 14 15 16
000
FTUS43 KMQT 061136
TAFIWD
TAF
KIWD 061136Z 0612/0712 VRB04KT 4SM -SHRA BR SCT025 OVC035
      TEMPO 0612/0615 SCT015 BKN025
     FM061500 32008KT 3SM -SHRA BR OVC004
     FM061700 35010G16KT 3SM -SHRA BR OVC004
     FM062200 32007KT P6SM VCSH BKN010
     FM070400 30004KT P6SM BKN025
      AMD LTD TO CLD VIS AND WIND=

USA.gov is the U.S. government's official web portal to all federal, state and local government web resources and services.